Terminal Aerodrome Forecast
Issued by NWS

Home | Current Version | Previous Version | Graphics & Text | Print | Product List | Glossary On
Versions: 1 2 3 4 5 6 7 8 9 10 11 12 13 14 15 16 17 18 19
000
FTUS43 KPAH 250221 AAB
TAFOWB
TAF AMD
KOWB 250221Z 2502/2524 32018G28KT P6SM BKN040
     FM250300 28012G20KT P6SM SCT030 BKN100
     FM250700 29012G22KT P6SM BKN250=

USA.gov is the U.S. government's official web portal to all federal, state and local government web resources and services.